Yankton, South Dakota
Current Conditions -  °F | °C
As of 12:55 PM on Saturday 25 Oct 2014 (Local Time) from KYKN Reporting Station
Clear Clear  
Wind Chill: 64°   Ceiling: Unl
Heat Index: 64°   Visibility: 10mi
Dew Point: 34°   Wind: 3mph
Humidity: 32%   Direction: 20°NNE
Pressure: 30.15"   Gusts: NA
Location:  42.87°N, 97.4°W
Report Text: KYKN 251755Z AUTO 02003KT 10SM CLR 18/01 A3015 RMK AO1 10180 20050 54000
Loading
Personal Weather Stations






























Interactive Weather Map
Tropical Storm Tracking
New forecast layout! Learn more

10-Day Weather Forecast

Advertisements
Track Severe Weather on mobile